createdAt,value
2017-08-31T00:01:45.285Z,99638.83
2017-08-31T00:04:14.351Z,99646.94
2017-08-31T00:06:43.410Z,99649.50
2017-08-31T00:09:12.496Z,99648.49
2017-08-31T00:11:41.547Z,99635.12
2017-08-31T00:14:10.670Z,99626.03
2017-08-31T00:16:39.776Z,99631.53
2017-08-31T00:19:08.905Z,99637.61
2017-08-31T00:21:37.939Z,99641.73
2017-08-31T00:24:07.218Z,99637.37
2017-08-31T00:26:36.260Z,99633.64
2017-08-31T00:29:06.103Z,99633.09
2017-08-31T00:31:35.178Z,99640.98
2017-08-31T00:34:04.382Z,99650.64
2017-08-31T00:36:33.528Z,99644.19
2017-08-31T00:39:02.583Z,99645.19
2017-08-31T00:41:31.676Z,99656.46
2017-08-31T00:44:00.721Z,99655.46
2017-08-31T00:46:29.779Z,99662.55
2017-08-31T00:48:58.841Z,99666.44
2017-08-31T00:51:27.940Z,99660.14
2017-08-31T00:53:57.035Z,99659.73
2017-08-31T00:56:26.117Z,99666.83
2017-08-31T00:58:55.180Z,99670.55
2017-08-31T01:01:24.260Z,99669.38
2017-08-31T01:03:53.361Z,99671.75
2017-08-31T01:06:22.413Z,99676.45
2017-08-31T01:08:51.476Z,99684.75
2017-08-31T01:11:20.576Z,99687.48
2017-08-31T01:13:49.678Z,99695.16
2017-08-31T01:16:18.750Z,99694.80
2017-08-31T01:18:47.830Z,99690.87
2017-08-31T01:21:16.867Z,99694.39
2017-08-31T01:23:45.948Z,99692.59
2017-08-31T01:26:15.006Z,99689.64
2017-08-31T01:28:44.107Z,99694.19
2017-08-31T01:31:13.169Z,99696.58
2017-08-31T01:33:42.238Z,99695.22
2017-08-31T01:36:11.331Z,99691.26
2017-08-31T01:38:41.137Z,99699.70
2017-08-31T01:41:10.243Z,99705.42
2017-08-31T01:43:39.276Z,99705.58
2017-08-31T01:46:09.120Z,99704.60
2017-08-31T01:48:38.314Z,99707.95
2017-08-31T01:51:07.393Z,99705.97
2017-08-31T01:53:36.479Z,99706.17
2017-08-31T01:56:05.618Z,99710.08
2017-08-31T01:58:34.722Z,99706.92
2017-08-31T02:01:03.844Z,99703.77
2017-08-31T02:03:32.884Z,99710.50
2017-08-31T02:06:01.938Z,99717.63
2017-08-31T02:08:31.055Z,99719.20
2017-08-31T02:11:00.172Z,99715.68
2017-08-31T02:13:29.249Z,99712.72
2017-08-31T02:15:58.326Z,99708.03
2017-08-31T02:18:27.393Z,99705.84
2017-08-31T02:20:56.499Z,99702.56
2017-08-31T02:23:25.576Z,99706.34
2017-08-31T02:25:54.655Z,99708.73
2017-08-31T02:28:23.949Z,99704.00
2017-08-31T02:30:53.002Z,99703.26
2017-08-31T02:33:22.085Z,99706.20
2017-08-31T02:35:51.457Z,99710.95
2017-08-31T02:38:20.548Z,99708.59
2017-08-31T02:40:49.593Z,99702.69
2017-08-31T02:43:18.644Z,99708.81
2017-08-31T02:45:47.708Z,99705.05
2017-08-31T02:48:16.797Z,99714.30
2017-08-31T02:50:46.641Z,99716.66
2017-08-31T02:53:15.705Z,99717.05
2017-08-31T02:55:44.751Z,99723.55
2017-08-31T02:58:13.828Z,99729.28
2017-08-31T03:00:43.269Z,99726.72
2017-08-31T03:03:12.325Z,99725.92
2017-08-31T03:05:41.420Z,99720.78
2017-08-31T03:08:11.262Z,99726.70
2017-08-31T03:10:40.339Z,99719.24
2017-08-31T03:13:09.399Z,99717.47
2017-08-31T03:15:38.465Z,99715.70
2017-08-31T03:18:07.536Z,99714.13
2017-08-31T03:20:36.595Z,99705.86
2017-08-31T03:23:05.669Z,99716.46
2017-08-31T03:25:34.974Z,99721.39
2017-08-31T03:28:04.352Z,99724.67
2017-08-31T03:30:33.391Z,99736.86
2017-08-31T03:33:02.480Z,99730.98
2017-08-31T03:35:31.558Z,99738.02
2017-08-31T03:38:00.608Z,99734.64
2017-08-31T03:40:29.660Z,99730.14
2017-08-31T03:42:58.770Z,99733.83
2017-08-31T03:45:27.938Z,99735.41
2017-08-31T03:47:57.810Z,99746.16
2017-08-31T03:50:26.877Z,99746.91
2017-08-31T03:52:55.941Z,99758.71
2017-08-31T03:55:25.044Z,99757.77
2017-08-31T03:57:54.072Z,99751.81
2017-08-31T04:00:23.157Z,99755.31
2017-08-31T04:02:52.217Z,99750.70
2017-08-31T04:05:21.283Z,99760.34
2017-08-31T04:07:50.432Z,99755.27
2017-08-31T04:10:19.534Z,99769.28
2017-08-31T04:12:48.580Z,99768.46
2017-08-31T04:15:17.692Z,99768.42
2017-08-31T04:17:47.510Z,99768.28
2017-08-31T04:20:17.198Z,99773.91
2017-08-31T04:22:46.239Z,99778.07
2017-08-31T04:25:15.596Z,99793.45
2017-08-31T04:27:44.732Z,99793.90
2017-08-31T04:30:13.790Z,99796.45
2017-08-31T04:32:42.873Z,99804.16
2017-08-31T04:35:13.824Z,99808.68
2017-08-31T04:37:42.960Z,99811.63
2017-08-31T04:40:12.020Z,99808.80
2017-08-31T04:42:41.125Z,99816.68
2017-08-31T04:45:10.987Z,99821.92
2017-08-31T04:47:40.036Z,99825.34
2017-08-31T04:50:09.115Z,99841.45
2017-08-31T04:52:38.198Z,99847.66
2017-08-31T04:55:07.248Z,99851.30
2017-08-31T04:57:36.353Z,99852.88
2017-08-31T05:00:05.396Z,99854.30
2017-08-31T05:02:34.450Z,99854.25
2017-08-31T05:05:03.651Z,99874.45
2017-08-31T05:07:32.705Z,99878.95
2017-08-31T05:10:02.540Z,99882.70
2017-08-31T05:12:31.608Z,99879.94
2017-08-31T05:15:00.656Z,99884.52
2017-08-31T05:17:29.935Z,99888.87
2017-08-31T05:19:59.021Z,99884.39
2017-08-31T05:22:28.083Z,99884.30
2017-08-31T05:24:57.188Z,99882.33
2017-08-31T05:27:26.260Z,99892.71
2017-08-31T05:29:55.364Z,99895.44
2017-08-31T05:32:24.439Z,99908.16
2017-08-31T05:34:53.495Z,99904.78
2017-08-31T05:37:22.576Z,99908.67
2017-08-31T05:39:51.634Z,99913.60
2017-08-31T05:42:20.706Z,99914.89
2017-08-31T05:44:49.737Z,99920.98
2017-08-31T05:47:19.600Z,99924.89
2017-08-31T05:49:48.693Z,99934.34
2017-08-31T05:52:17.725Z,99935.58
2017-08-31T05:54:46.791Z,99945.75
2017-08-31T05:57:15.843Z,99946.25
2017-08-31T05:59:44.935Z,99942.20
2017-08-31T06:02:14.753Z,99951.69
2017-08-31T06:04:43.808Z,99955.38
2017-08-31T06:07:12.864Z,99965.17
2017-08-31T06:09:41.923Z,99951.72
2017-08-31T06:12:11.046Z,99966.88
2017-08-31T06:14:40.065Z,99970.80
2017-08-31T06:17:09.231Z,99972.91
2017-08-31T06:19:38.298Z,99988.20
2017-08-31T06:22:07.389Z,99983.01
2017-08-31T06:24:36.431Z,99986.51
2017-08-31T06:27:06.333Z,99987.06
2017-08-31T06:29:35.384Z,99991.05
2017-08-31T06:32:04.498Z,100009.56
2017-08-31T06:34:33.560Z,100020.69
2017-08-31T06:37:02.687Z,100033.15
2017-08-31T06:39:31.740Z,100023.32
2017-08-31T06:42:00.811Z,100022.68
2017-08-31T06:44:29.874Z,100023.23
2017-08-31T06:46:58.954Z,100032.02
2017-08-31T06:49:28.006Z,100032.30
2017-08-31T06:51:57.092Z,100037.06
2017-08-31T06:54:26.196Z,100058.56
2017-08-31T06:56:55.236Z,100064.64
2017-08-31T06:59:25.972Z,100071.64
2017-08-31T07:01:58.040Z,100070.80
2017-08-31T07:04:27.897Z,100081.08
2017-08-31T07:06:56.968Z,100088.48
2017-08-31T07:09:26.788Z,100095.72
2017-08-31T07:11:55.819Z,100120.22
2017-08-31T07:14:24.885Z,100119.43
2017-08-31T07:16:54.023Z,100117.96
2017-08-31T07:19:23.104Z,100125.09
2017-08-31T07:21:52.171Z,100131.42
2017-08-31T07:24:21.229Z,100137.75
2017-08-31T07:26:50.290Z,100140.53
2017-08-31T07:29:19.393Z,100146.61
2017-08-31T07:31:48.577Z,100151.16
2017-08-31T07:34:17.668Z,100158.25
2017-08-31T07:36:46.740Z,100167.47
2017-08-31T07:39:15.961Z,100171.61
2017-08-31T07:41:45.093Z,100181.35
2017-08-31T07:44:14.135Z,100169.55
2017-08-31T07:46:43.265Z,100170.82
2017-08-31T07:49:12.658Z,100172.62
2017-08-31T07:51:42.157Z,100183.73
2017-08-31T07:54:12.821Z,100194.13
2017-08-31T07:56:41.841Z,100205.33
2017-08-31T07:59:11.170Z,100207.03
2017-08-31T08:01:40.219Z,100215.23
2017-08-31T08:04:10.055Z,100226.87
2017-08-31T08:06:39.879Z,100242.81
2017-08-31T08:09:09.469Z,100243.76
2017-08-31T08:11:39.275Z,100239.41
2017-08-31T08:14:08.357Z,100252.70
2017-08-31T08:16:37.460Z,100250.27
2017-08-31T08:19:06.560Z,100251.59
2017-08-31T08:21:35.616Z,100258.52
2017-08-31T08:24:05.260Z,100265.95
2017-08-31T08:26:34.308Z,100258.61
2017-08-31T08:29:03.356Z,100265.78
2017-08-31T08:31:33.190Z,100270.75
2017-08-31T08:34:02.259Z,100265.00
2017-08-31T08:36:32.084Z,100274.00
2017-08-31T08:39:01.349Z,100277.56
2017-08-31T08:41:30.567Z,100284.95
2017-08-31T08:43:59.611Z,100297.56
2017-08-31T08:46:28.708Z,100291.45
2017-08-31T08:48:57.745Z,100303.61
2017-08-31T08:51:26.840Z,100304.59
2017-08-31T08:53:55.900Z,100311.89
2017-08-31T08:56:24.943Z,100314.91
2017-08-31T08:58:54.817Z,100315.22
2017-08-31T09:01:23.857Z,100312.17
2017-08-31T09:03:53.664Z,100319.83
2017-08-31T09:06:23.849Z,100321.20
2017-08-31T09:08:52.904Z,100330.11
2017-08-31T09:11:22.268Z,100324.69
2017-08-31T09:13:51.312Z,100324.50
2017-08-31T09:16:20.400Z,100324.89
2017-08-31T09:18:49.450Z,100325.27
2017-08-31T09:21:18.520Z,100324.68
2017-08-31T09:23:47.604Z,100336.23
2017-08-31T09:26:16.716Z,100327.69
2017-08-31T09:28:45.818Z,100333.09
2017-08-31T09:31:14.861Z,100338.72
2017-08-31T09:33:43.900Z,100351.25
2017-08-31T09:36:13.015Z,100357.94
2017-08-31T09:38:42.059Z,100362.37
2017-08-31T09:41:11.220Z,100361.24
2017-08-31T09:43:41.057Z,100359.72
2017-08-31T09:46:10.393Z,100363.13
2017-08-31T09:48:39.479Z,100365.27
2017-08-31T09:51:08.555Z,100364.91
2017-08-31T09:53:37.661Z,100371.18
2017-08-31T09:56:06.709Z,100380.52
2017-08-31T09:58:35.777Z,100377.80
2017-08-31T10:01:04.852Z,100378.86
2017-08-31T10:03:33.912Z,100388.86
2017-08-31T10:06:02.970Z,100393.99
2017-08-31T10:08:32.067Z,100396.77
2017-08-31T10:11:01.178Z,100386.92
2017-08-31T10:13:30.258Z,100393.14
2017-08-31T10:15:59.672Z,100393.50
2017-08-31T10:18:28.754Z,100393.40
2017-08-31T10:20:57.825Z,100399.60
2017-08-31T10:23:26.900Z,100411.01
2017-08-31T10:25:56.035Z,100405.09
2017-08-31T10:28:25.068Z,100401.60
2017-08-31T10:30:54.149Z,100415.97
2017-08-31T10:33:23.235Z,100411.37
2017-08-31T10:35:52.318Z,100426.02
2017-08-31T10:38:21.361Z,100433.97
2017-08-31T10:40:50.464Z,100434.52
2017-08-31T10:43:19.535Z,100431.62
2017-08-31T10:45:48.621Z,100443.08
2017-08-31T10:48:17.988Z,100448.97
2017-08-31T10:50:47.029Z,100459.41
2017-08-31T10:53:16.098Z,100455.47
2017-08-31T10:55:45.188Z,100460.22
2017-08-31T10:58:15.175Z,100460.45
2017-08-31T11:00:44.288Z,100463.94
2017-08-31T11:03:13.317Z,100469.70
2017-08-31T11:05:42.393Z,100477.48
2017-08-31T11:08:11.481Z,100482.40
2017-08-31T11:10:40.556Z,100493.68
2017-08-31T11:13:09.628Z,100496.17
2017-08-31T11:15:39.716Z,100488.96
2017-08-31T11:18:08.776Z,100491.05
2017-08-31T11:20:37.893Z,100497.69
2017-08-31T11:23:06.988Z,100496.58
2017-08-31T11:25:36.399Z,100498.02
2017-08-31T11:28:05.607Z,100507.55
2017-08-31T11:30:34.648Z,100504.02
2017-08-31T11:33:03.795Z,100513.61
2017-08-31T11:35:32.860Z,100516.71
2017-08-31T11:38:02.128Z,100524.77
2017-08-31T11:40:31.160Z,100541.69
2017-08-31T11:43:00.221Z,100537.49
2017-08-31T11:45:29.306Z,100546.88
2017-08-31T11:47:58.364Z,100562.19
2017-08-31T11:50:27.454Z,100561.59
2017-08-31T11:52:56.521Z,100567.51
2017-08-31T11:55:25.573Z,100568.72
2017-08-31T11:57:54.647Z,100577.91
2017-08-31T12:00:23.766Z,100575.09
2017-08-31T12:02:53.838Z,100575.57
2017-08-31T12:05:23.048Z,100575.61
2017-08-31T12:07:53.689Z,100583.17
2017-08-31T12:10:23.772Z,100582.13
2017-08-31T12:12:53.220Z,100587.99
2017-08-31T12:15:22.293Z,100593.03
2017-08-31T12:17:51.388Z,100597.65
2017-08-31T12:20:20.444Z,100597.82
2017-08-31T12:22:49.965Z,100593.83
2017-08-31T12:25:19.048Z,100602.07
2017-08-31T12:27:48.158Z,100608.53
2017-08-31T12:30:17.225Z,100606.50
2017-08-31T12:32:46.275Z,100603.75
2017-08-31T12:35:15.348Z,100604.98
2017-08-31T12:37:44.424Z,100607.32
2017-08-31T12:40:14.618Z,100613.93
2017-08-31T12:42:43.717Z,100607.03
2017-08-31T12:45:12.756Z,100610.73
2017-08-31T12:47:41.824Z,100615.07
2017-08-31T12:50:11.174Z,100613.23
2017-08-31T12:52:40.573Z,100609.45
2017-08-31T12:55:09.645Z,100613.12
2017-08-31T12:57:38.717Z,100618.77
2017-08-31T13:00:07.806Z,100609.91
2017-08-31T13:02:36.860Z,100620.20
2017-08-31T13:05:05.958Z,100624.11
2017-08-31T13:07:35.037Z,100622.98
2017-08-31T13:10:04.108Z,100608.53
2017-08-31T13:12:33.181Z,100616.39
2017-08-31T13:15:02.253Z,100613.85
2017-08-31T13:17:31.322Z,100620.39
2017-08-31T13:20:00.386Z,100620.88
2017-08-31T13:22:29.461Z,100624.39
2017-08-31T13:24:58.576Z,100620.41
2017-08-31T13:27:27.616Z,100619.82
2017-08-31T13:29:56.808Z,100623.33
2017-08-31T13:32:25.867Z,100628.34
2017-08-31T13:34:54.932Z,100629.69
2017-08-31T13:37:24.016Z,100631.52
2017-08-31T13:39:53.068Z,100630.05
2017-08-31T13:42:22.152Z,100629.77
2017-08-31T13:44:51.204Z,100633.15
2017-08-31T13:47:20.450Z,100625.63
2017-08-31T13:49:49.528Z,100635.48
2017-08-31T13:52:18.583Z,100643.89
2017-08-31T13:54:47.659Z,100643.94
2017-08-31T13:57:16.707Z,100648.28
2017-08-31T13:59:45.784Z,100643.80
2017-08-31T14:02:14.824Z,100639.67
2017-08-31T14:04:43.917Z,100649.16
2017-08-31T14:07:12.962Z,100648.91
2017-08-31T14:09:42.035Z,100646.62
2017-08-31T14:12:11.128Z,100644.45
2017-08-31T14:14:40.231Z,100646.06
2017-08-31T14:17:10.101Z,100641.89
2017-08-31T14:19:39.172Z,100649.67
2017-08-31T14:22:08.249Z,100648.01
2017-08-31T14:24:37.328Z,100649.12
2017-08-31T14:27:06.368Z,100645.91
2017-08-31T14:29:35.460Z,100646.41
2017-08-31T14:32:04.589Z,100654.92
2017-08-31T14:34:33.671Z,100659.76
2017-08-31T14:37:02.742Z,100641.89
2017-08-31T14:39:31.926Z,100643.72
2017-08-31T14:42:00.984Z,100653.50
2017-08-31T14:44:30.340Z,100660.75
2017-08-31T14:46:59.416Z,100676.26
2017-08-31T14:49:28.506Z,100671.53
2017-08-31T14:54:58.792Z,100662.58
2017-08-31T14:57:27.840Z,100668.90
2017-08-31T14:59:56.930Z,100670.78
2017-08-31T15:02:26.103Z,100671.58
2017-08-31T15:04:55.136Z,100674.59
2017-08-31T15:07:24.224Z,100675.91
2017-08-31T15:09:53.289Z,100676.58
2017-08-31T15:12:22.350Z,100680.98
2017-08-31T15:14:51.396Z,100688.27
2017-08-31T15:17:20.470Z,100689.42
2017-08-31T15:19:49.541Z,100692.13
2017-08-31T15:22:18.604Z,100690.90
2017-08-31T15:24:47.673Z,100695.58
2017-08-31T15:27:17.505Z,100701.52
2017-08-31T15:29:46.589Z,100697.09
2017-08-31T15:32:15.896Z,100698.02
2017-08-31T15:34:44.975Z,100699.40
2017-08-31T15:37:14.023Z,100692.25
2017-08-31T15:39:43.130Z,100697.81
2017-08-31T15:42:12.168Z,100698.97
2017-08-31T15:44:41.251Z,100694.59
2017-08-31T15:47:10.671Z,100695.52
2017-08-31T15:49:39.719Z,100688.66
2017-08-31T15:52:08.835Z,100697.92
2017-08-31T15:54:37.888Z,100700.70
2017-08-31T15:57:07.031Z,100700.10
2017-08-31T15:59:36.184Z,100704.99
2017-08-31T16:02:05.277Z,100705.66
2017-08-31T16:04:34.376Z,100710.19
2017-08-31T16:07:03.487Z,100708.55
2017-08-31T16:09:32.611Z,100707.83
2017-08-31T16:12:01.655Z,100709.14
2017-08-31T16:14:30.764Z,100709.64
2017-08-31T16:16:59.828Z,100714.00
2017-08-31T16:19:28.935Z,100722.30
2017-08-31T16:21:58.007Z,100714.13
2017-08-31T16:24:27.086Z,100715.38
2017-08-31T16:26:56.950Z,100720.17
2017-08-31T16:29:25.987Z,100724.91
2017-08-31T16:31:55.064Z,100723.00
2017-08-31T16:34:24.159Z,100731.17
2017-08-31T16:36:53.283Z,100728.76
2017-08-31T16:39:22.383Z,100737.78
2017-08-31T16:41:51.449Z,100736.80
2017-08-31T16:44:20.499Z,100739.55
2017-08-31T16:46:49.582Z,100742.04
2017-08-31T16:49:18.678Z,100736.72
2017-08-31T16:51:47.881Z,100738.55
2017-08-31T16:54:16.967Z,100737.20
2017-08-31T16:56:46.044Z,100745.06
2017-08-31T16:59:15.116Z,100751.45
2017-08-31T17:01:44.178Z,100755.67
2017-08-31T17:04:13.233Z,100759.70
2017-08-31T17:06:42.307Z,100763.31
2017-08-31T17:09:11.385Z,100761.47
2017-08-31T17:11:40.465Z,100765.81
2017-08-31T17:14:09.914Z,100763.61
2017-08-31T17:16:38.944Z,100758.64
2017-08-31T17:19:08.068Z,100766.88
2017-08-31T17:21:37.117Z,100767.48
2017-08-31T17:24:07.499Z,100767.30
2017-08-31T17:26:36.537Z,100768.95
2017-08-31T17:29:05.637Z,100768.55
2017-08-31T17:31:34.696Z,100768.47
2017-08-31T17:34:03.778Z,100764.14
2017-08-31T17:36:32.871Z,100773.47
2017-08-31T17:39:01.907Z,100773.63
2017-08-31T17:41:31.288Z,100773.31
2017-08-31T17:44:00.349Z,100777.59
2017-08-31T17:46:29.437Z,100779.16
2017-08-31T17:48:58.788Z,100784.26
2017-08-31T17:51:27.880Z,100783.09
2017-08-31T17:53:56.912Z,100785.97
2017-08-31T17:56:25.965Z,100786.42
2017-08-31T17:58:55.073Z,100790.41
2017-08-31T18:01:24.237Z,100794.74
2017-08-31T18:03:53.291Z,100801.09
2017-08-31T18:06:22.353Z,100805.44
2017-08-31T18:08:51.418Z,100803.31
2017-08-31T18:11:20.456Z,100807.30
2017-08-31T18:13:49.545Z,100815.88
2017-08-31T18:16:18.596Z,100813.77
2017-08-31T18:18:47.644Z,100815.91
2017-08-31T18:21:16.742Z,100818.33
2017-08-31T18:23:45.797Z,100823.84
2017-08-31T18:26:14.863Z,100833.73
2017-08-31T18:28:43.942Z,100838.91
2017-08-31T18:31:13.009Z,100837.34
2017-08-31T18:33:42.078Z,100835.48
2017-08-31T18:36:11.150Z,100842.31
2017-08-31T18:38:40.237Z,100848.30
2017-08-31T18:41:10.054Z,100848.66
2017-08-31T18:43:39.112Z,100850.67
2017-08-31T18:46:08.481Z,100855.67
2017-08-31T18:48:37.539Z,100863.50
2017-08-31T18:51:06.642Z,100863.14
2017-08-31T18:53:35.672Z,100866.98
2017-08-31T18:56:04.938Z,100864.59
2017-08-31T18:58:34.050Z,100865.21
2017-08-31T19:01:03.089Z,100870.24
2017-08-31T19:03:32.305Z,100866.75
2017-08-31T19:06:01.448Z,100876.15
2017-08-31T19:08:30.491Z,100879.70
2017-08-31T19:10:59.617Z,100886.77
2017-08-31T19:13:28.665Z,100884.02
2017-08-31T19:15:57.748Z,100884.39
2017-08-31T19:18:26.826Z,100879.83
2017-08-31T19:20:56.245Z,100884.55
2017-08-31T19:23:25.290Z,100886.61
2017-08-31T19:25:54.354Z,100889.34
2017-08-31T19:28:23.426Z,100895.23
2017-08-31T19:30:52.558Z,100896.77
2017-08-31T19:33:21.638Z,100894.46
2017-08-31T19:35:50.717Z,100888.39
2017-08-31T19:38:19.772Z,100882.86
2017-08-31T19:40:48.817Z,100878.78
2017-08-31T19:43:18.002Z,100886.14
2017-08-31T19:45:47.064Z,100879.50
2017-08-31T19:48:16.978Z,100876.39
2017-08-31T19:50:46.063Z,100877.27
2017-08-31T19:53:15.138Z,100884.58
2017-08-31T19:55:44.260Z,100895.30
2017-08-31T19:58:13.356Z,100895.13
2017-08-31T20:00:42.409Z,100895.21
2017-08-31T20:03:11.587Z,100898.00
2017-08-31T20:05:40.635Z,100888.82
2017-08-31T20:08:10.681Z,100879.58
2017-08-31T20:10:39.764Z,100890.78
2017-08-31T20:13:08.800Z,100884.97
2017-08-31T20:15:37.872Z,100886.59
2017-08-31T20:18:07.027Z,100887.02
2017-08-31T20:20:36.125Z,100892.59
2017-08-31T20:23:05.197Z,100884.55
2017-08-31T20:25:34.332Z,100888.80
2017-08-31T20:28:03.436Z,100886.40
2017-08-31T20:30:32.825Z,100888.98
2017-08-31T20:33:01.903Z,100891.28
2017-08-31T20:35:31.068Z,100891.39
2017-08-31T20:38:00.120Z,100895.52
2017-08-31T20:40:29.206Z,100898.92
2017-08-31T20:42:58.287Z,100896.36
2017-08-31T20:45:27.441Z,100897.00
2017-08-31T20:47:56.537Z,100902.19
2017-08-31T20:50:25.612Z,100910.09
2017-08-31T20:52:54.667Z,100913.08
2017-08-31T20:55:23.729Z,100917.85
2017-08-31T20:57:52.840Z,100912.80
2017-08-31T21:00:21.922Z,100915.77
2017-08-31T21:02:51.004Z,100910.22
2017-08-31T21:05:20.063Z,100913.98
2017-08-31T21:07:49.281Z,100912.45
2017-08-31T21:10:18.482Z,100915.52
2017-08-31T21:12:47.569Z,100914.55
2017-08-31T21:15:17.384Z,100913.25
2017-08-31T21:17:46.590Z,100918.83
2017-08-31T21:20:15.707Z,100919.17
2017-08-31T21:22:44.777Z,100919.00
2017-08-31T21:25:13.856Z,100916.33
2017-08-31T21:27:42.924Z,100925.20
2017-08-31T21:30:12.213Z,100917.41
2017-08-31T21:32:41.585Z,100919.86
2017-08-31T21:35:10.684Z,100915.77
2017-08-31T21:37:39.753Z,100919.13
2017-08-31T21:40:08.791Z,100918.56
2017-08-31T21:42:38.646Z,100923.73
2017-08-31T21:45:07.789Z,100924.55
2017-08-31T21:47:36.935Z,100928.19
2017-08-31T21:50:06.021Z,100919.81
2017-08-31T21:52:35.110Z,100924.42
2017-08-31T21:55:04.165Z,100932.39
2017-08-31T21:57:33.485Z,100923.85
2017-08-31T22:00:02.570Z,100920.15
2017-08-31T22:02:31.618Z,100922.02
2017-08-31T22:05:00.689Z,100920.02
2017-08-31T22:07:29.768Z,100917.36
2017-08-31T22:09:58.812Z,100931.07
2017-08-31T22:12:27.903Z,100932.45
2017-08-31T22:14:56.956Z,100933.25
2017-08-31T22:17:26.126Z,100933.81
2017-08-31T22:19:55.197Z,100933.12
2017-08-31T22:22:24.246Z,100938.31
2017-08-31T22:24:53.310Z,100945.19
2017-08-31T22:27:22.449Z,100950.16
2017-08-31T22:29:52.431Z,100959.03
2017-08-31T22:32:21.506Z,100957.20
2017-08-31T22:34:50.580Z,100954.96
2017-08-31T22:37:19.662Z,100952.23
2017-08-31T22:39:49.548Z,100954.96
2017-08-31T22:42:18.695Z,100965.89
2017-08-31T22:44:47.740Z,100959.45
2017-08-31T22:47:16.878Z,100948.70
2017-08-31T22:49:45.940Z,100949.09
2017-08-31T22:52:15.012Z,100958.42
2017-08-31T22:54:49.826Z,100952.82
2017-08-31T22:57:36.499Z,100950.32
2017-08-31T23:00:05.564Z,100945.69
2017-08-31T23:02:34.639Z,100942.95
2017-08-31T23:05:03.736Z,100952.41
2017-08-31T23:07:32.828Z,100951.70
2017-08-31T23:10:03.105Z,100954.28
2017-08-31T23:12:32.148Z,100966.33
2017-08-31T23:15:01.212Z,100969.39
2017-08-31T23:17:30.357Z,100965.46
2017-08-31T23:19:59.705Z,100965.76
2017-08-31T23:22:28.794Z,100965.45
2017-08-31T23:24:57.855Z,100965.45
2017-08-31T23:27:27.132Z,100967.86
2017-08-31T23:29:56.949Z,100959.25
2017-08-31T23:32:26.003Z,100959.19
2017-08-31T23:34:55.088Z,100966.48
2017-08-31T23:37:24.134Z,100962.08
2017-08-31T23:39:53.217Z,100964.74
2017-08-31T23:42:22.276Z,100966.11
2017-08-31T23:44:51.337Z,100962.34
2017-08-31T23:47:20.396Z,100959.61
2017-08-31T23:49:49.472Z,100952.45
2017-08-31T23:52:18.544Z,100952.70
2017-08-31T23:54:47.582Z,100956.23
2017-08-31T23:57:16.666Z,100955.09
2017-08-31T23:59:46.084Z,100946.34
